Time;durP1;ratioP1;P1;durP2;ratioP2;P2;SDS_P1;SDS_P2;PMS_P1;PMS_P2;Temp;Humidity;BMP_temperature;BMP_pressure;BME280_temperature;BME280_humidity;BME280_pressure;Samples;Min_cycle;Max_cycle;Signal;HPM_P1;HPM_P2
2023/01/19 00:01:51;;;;;;;8.37;6.03;;;;;;;;;;5011525;28;20676;-65
2023/01/19 00:04:17;;;;;;;7.83;5.57;;;;;;;;;;5011830;28;20224;-65
2023/01/19 00:06:42;;;;;;;8.60;5.27;;;;;;;;;;4994778;28;20288;-65
2023/01/19 00:09:07;;;;;;;7.77;5.53;;;;;;;;;;4995797;28;20632;-65
2023/01/19 00:11:33;;;;;;;9.30;5.93;;;;;;;;;;4992659;28;20217;-65
2023/01/19 00:13:58;;;;;;;8.23;6.10;;;;;;;;;;4992146;28;20271;-65
2023/01/19 00:16:23;;;;;;;9.93;6.57;;;;;;;;;;4991075;28;20213;-65
2023/01/19 00:18:49;;;;;;;8.37;5.87;;;;;;;;;;4975051;28;20228;-65
2023/01/19 00:21:15;;;;;;;8.40;4.67;;;;;;;;;;4991818;28;20221;-65
2023/01/19 00:23:41;;;;;;;7.00;5.30;;;;;;;;;;4991654;28;20217;-65
2023/01/19 00:26:07;;;;;;;8.23;6.00;;;;;;;;;;4991698;28;20751;-65
2023/01/19 00:28:32;;;;;;;7.17;5.27;;;;;;;;;;4992183;28;20213;-65
2023/01/19 00:30:58;;;;;;;9.03;5.60;;;;;;;;;;4994005;28;20592;-65
2023/01/19 00:33:23;;;;;;;8.17;5.80;;;;;;;;;;4995217;28;20687;-64
2023/01/19 00:35:50;;;;;;;9.33;6.20;;;;;;;;;;4995372;28;20258;-64
2023/01/19 00:38:15;;;;;;;8.10;6.70;;;;;;;;;;4994541;28;20245;-64
2023/01/19 00:40:40;;;;;;;8.70;6.10;;;;;;;;;;4997741;28;20303;-64
2023/01/19 00:43:06;;;;;;;9.50;6.37;;;;;;;;;;5014598;28;20604;-64
2023/01/19 00:45:31;;;;;;;10.27;6.17;;;;;;;;;;5014320;28;20213;-64
2023/01/19 00:47:57;;;;;;;9.77;6.47;;;;;;;;;;4988235;28;20268;-64
2023/01/19 00:50:22;;;;;;;9.50;6.27;;;;;;;;;;4977463;28;20217;-64
2023/01/19 00:52:48;;;;;;;7.87;5.97;;;;;;;;;;4981325;28;20267;-64
2023/01/19 00:55:13;;;;;;;9.27;6.23;;;;;;;;;;4984928;28;20243;-64
2023/01/19 00:57:39;;;;;;;7.93;6.30;;;;;;;;;;4985714;28;20221;-64
2023/01/19 01:00:05;;;;;;;8.23;6.07;;;;;;;;;;4984225;28;20225;-64
2023/01/19 01:02:30;;;;;;;7.60;5.53;;;;;;;;;;5004524;28;20256;-64
2023/01/19 01:04:56;;;;;;;9.10;6.30;;;;;;;;;;4992093;28;20256;-64
2023/01/19 01:07:21;;;;;;;9.23;6.57;;;;;;;;;;4982093;28;20653;-65
2023/01/19 01:09:46;;;;;;;8.33;6.50;;;;;;;;;;4974746;28;20244;-65
2023/01/19 01:12:12;;;;;;;8.50;6.60;;;;;;;;;;4976237;28;20316;-65
2023/01/19 01:14:37;;;;;;;8.50;6.53;;;;;;;;;;4980191;28;20216;-65
2023/01/19 01:17:02;;;;;;;8.10;6.00;;;;;;;;;;4984499;28;20219;-65
2023/01/19 01:19:28;;;;;;;8.43;6.50;;;;;;;;;;4984755;28;20237;-64
2023/01/19 01:21:54;;;;;;;8.50;6.67;;;;;;;;;;4967440;28;20588;-64
2023/01/19 01:24:19;;;;;;;8.93;6.40;;;;;;;;;;4984518;28;20316;-64
2023/01/19 01:26:45;;;;;;;9.20;6.10;;;;;;;;;;4984126;28;20308;-64
2023/01/19 01:29:10;;;;;;;10.00;6.07;;;;;;;;;;4984304;28;20629;-64
2023/01/19 01:31:35;;;;;;;9.13;6.27;;;;;;;;;;4977394;28;20217;-64
2023/01/19 01:34:00;;;;;;;8.50;6.60;;;;;;;;;;4975748;28;20241;-65
2023/01/19 01:36:30;;;;;;;10.07;5.93;;;;;;;;;;4977223;28;20576;-64
2023/01/19 01:38:55;;;;;;;8.80;6.00;;;;;;;;;;4983846;28;20303;-65
2023/01/19 01:41:21;;;;;;;8.13;5.90;;;;;;;;;;4983348;28;20223;-65
2023/01/19 01:43:47;;;;;;;9.20;6.37;;;;;;;;;;4984335;28;20622;-65
2023/01/19 01:46:14;;;;;;;8.40;6.37;;;;;;;;;;4966407;28;20225;-65
2023/01/19 01:48:39;;;;;;;7.83;5.77;;;;;;;;;;5002960;28;20498;-65
2023/01/19 01:51:24;;;;;;;8.50;5.90;;;;;;;;;;4994273;28;20218;-65
2023/01/19 01:53:51;;;;;;;8.47;6.03;;;;;;;;;;4977432;28;20227;-65
2023/01/19 01:56:18;;;;;;;9.00;5.70;;;;;;;;;;4957868;28;20259;-65
2023/01/19 01:58:44;;;;;;;7.67;5.43;;;;;;;;;;4959165;28;20209;-65
2023/01/19 02:03:53;;;;;;;8.63;6.07;;;;;;;;;;4984129;28;20695;-64
2023/01/19 02:06:18;;;;;;;7.57;5.67;;;;;;;;;;4997517;28;20228;-64
2023/01/19 02:14:20;;;;;;;8.03;5.57;;;;;;;;;;5002915;28;20691;-64
2023/01/19 02:16:45;;;;;;;7.23;6.03;;;;;;;;;;4994967;28;20228;-64
2023/01/19 02:19:11;;;;;;;6.37;5.07;;;;;;;;;;4995134;28;20208;-63
2023/01/19 02:21:42;;;;;;;7.73;5.70;;;;;;;;;;4994361;28;20223;-64
2023/01/19 02:24:07;;;;;;;7.47;5.37;;;;;;;;;;5000501;28;20224;-63
2023/01/19 02:26:34;;;;;;;6.83;5.17;;;;;;;;;;5003083;28;20227;-64
2023/01/19 02:29:01;;;;;;;7.10;5.13;;;;;;;;;;5003271;28;20240;-64
2023/01/19 02:31:27;;;;;;;6.70;4.97;;;;;;;;;;5008141;28;20208;-65
2023/01/19 02:33:53;;;;;;;7.73;5.40;;;;;;;;;;5009032;28;20227;-64
2023/01/19 02:36:20;;;;;;;7.53;5.27;;;;;;;;;;4993316;28;20288;-64
2023/01/19 02:38:45;;;;;;;6.03;4.60;;;;;;;;;;4975665;28;20217;-65
2023/01/19 02:41:11;;;;;;;5.60;4.60;;;;;;;;;;4982040;28;20266;-64
2023/01/19 02:43:37;;;;;;;6.23;5.00;;;;;;;;;;5012185;28;20296;-64
2023/01/19 02:46:02;;;;;;;6.30;5.10;;;;;;;;;;4994651;28;20307;-64
2023/01/19 02:48:27;;;;;;;7.57;5.17;;;;;;;;;;5012951;28;20220;-64
2023/01/19 02:50:56;;;;;;;6.33;4.80;;;;;;;;;;5004590;28;20221;-64
2023/01/19 02:53:31;;;;;;;6.50;4.97;;;;;;;;;;4974401;28;20205;-65
2023/01/19 02:56:02;;;;;;;6.27;4.63;;;;;;;;;;4992643;28;20220;-64
2023/01/19 02:58:31;;;;;;;5.37;4.47;;;;;;;;;;4999514;28;20220;-64
2023/01/19 03:01:02;;;;;;;6.03;4.80;;;;;;;;;;4985149;28;20307;-64
2023/01/19 03:03:27;;;;;;;5.63;4.73;;;;;;;;;;5002200;28;20647;-64
2023/01/19 03:05:55;;;;;;;4.90;4.27;;;;;;;;;;5010585;28;20311;-64
2023/01/19 03:08:27;;;;;;;5.23;4.30;;;;;;;;;;4994507;28;21017;-64
2023/01/19 03:10:56;;;;;;;6.77;4.70;;;;;;;;;;4997039;28;20222;-64
2023/01/19 03:13:30;;;;;;;5.10;3.87;;;;;;;;;;4984362;28;20675;-64
2023/01/19 03:15:57;;;;;;;4.67;3.40;;;;;;;;;;5002414;28;20211;-64
2023/01/19 03:18:23;;;;;;;4.10;3.50;;;;;;;;;;5001918;28;20219;-66
2023/01/19 03:20:49;;;;;;;4.83;3.40;;;;;;;;;;4985337;28;20575;-66
2023/01/19 03:23:14;;;;;;;4.60;3.40;;;;;;;;;;5002073;28;20216;-66
2023/01/19 03:25:41;;;;;;;4.77;3.20;;;;;;;;;;5001425;28;20251;-66
2023/01/19 03:28:06;;;;;;;4.17;3.43;;;;;;;;;;4991679;28;20258;-66
2023/01/19 03:30:33;;;;;;;3.77;3.00;;;;;;;;;;4994870;28;21258;-66
2023/01/19 03:33:00;;;;;;;4.43;3.37;;;;;;;;;;4994721;28;20219;-66
2023/01/19 03:35:25;;;;;;;3.43;2.80;;;;;;;;;;4984351;28;20282;-66
2023/01/19 03:37:51;;;;;;;3.00;2.53;;;;;;;;;;4985184;28;20224;-66
2023/01/19 03:40:17;;;;;;;2.93;2.43;;;;;;;;;;4983872;28;20221;-66
2023/01/19 03:42:42;;;;;;;2.77;2.43;;;;;;;;;;4984963;28;20345;-67
2023/01/19 03:45:08;;;;;;;2.47;2.10;;;;;;;;;;5001768;28;20208;-66
2023/01/19 03:47:34;;;;;;;2.60;2.40;;;;;;;;;;4997173;28;20758;-67
2023/01/19 03:49:59;;;;;;;2.63;2.17;;;;;;;;;;4992167;28;20219;-66
2023/01/19 03:52:26;;;;;;;2.50;2.20;;;;;;;;;;4975871;28;20204;-66
2023/01/19 03:54:51;;;;;;;2.47;2.13;;;;;;;;;;4993854;28;20355;-66
2023/01/19 03:57:17;;;;;;;2.57;2.37;;;;;;;;;;4999830;28;20311;-66
2023/01/19 03:59:42;;;;;;;2.30;2.00;;;;;;;;;;5002433;28;20220;-66
2023/01/19 04:02:07;;;;;;;2.17;1.97;;;;;;;;;;5000936;28;20225;-66
2023/01/19 04:04:32;;;;;;;2.60;2.40;;;;;;;;;;5003168;28;20239;-66
2023/01/19 04:06:58;;;;;;;1.90;1.60;;;;;;;;;;5004013;28;20302;-66
2023/01/19 04:09:24;;;;;;;2.57;1.77;;;;;;;;;;5004924;28;20213;-66
2023/01/19 04:11:50;;;;;;;2.43;2.03;;;;;;;;;;5002696;28;20244;-66
2023/01/19 04:14:15;;;;;;;2.33;1.87;;;;;;;;;;4997178;28;20311;-66
2023/01/19 04:16:40;;;;;;;2.07;1.87;;;;;;;;;;4997682;28;20243;-66
2023/01/19 04:19:06;;;;;;;1.80;1.50;;;;;;;;;;4999452;28;20236;-66
2023/01/19 04:21:31;;;;;;;2.20;1.50;;;;;;;;;;5006075;28;20999;-66
2023/01/19 04:23:57;;;;;;;2.93;1.70;;;;;;;;;;5004883;28;20208;-67
2023/01/19 04:26:23;;;;;;;1.40;1.23;;;;;;;;;;5005257;28;20302;-66
2023/01/19 04:28:48;;;;;;;2.00;1.57;;;;;;;;;;5005031;28;20216;-67
2023/01/19 04:31:13;;;;;;;1.53;1.30;;;;;;;;;;5005246;28;20220;-66
2023/01/19 04:33:39;;;;;;;2.40;1.47;;;;;;;;;;5004854;28;20228;-66
2023/01/19 04:36:04;;;;;;;1.70;1.03;;;;;;;;;;5011907;28;20224;-67
2023/01/19 04:38:30;;;;;;;1.83;1.07;;;;;;;;;;4997761;28;20221;-67
2023/01/19 04:40:55;;;;;;;1.57;0.90;;;;;;;;;;4997126;28;20243;-68
2023/01/19 04:43:20;;;;;;;1.43;0.70;;;;;;;;;;5004029;28;20217;-68
2023/01/19 04:45:46;;;;;;;1.47;0.73;;;;;;;;;;5005105;28;20240;-68
2023/01/19 04:48:12;;;;;;;1.47;0.73;;;;;;;;;;5019956;28;20363;-68
2023/01/19 04:50:37;;;;;;;3.47;0.60;;;;;;;;;;5015155;28;20697;-68
2023/01/19 04:53:02;;;;;;;1.00;0.50;;;;;;;;;;5033032;28;20219;-67
2023/01/19 04:55:27;;;;;;;1.33;0.40;;;;;;;;;;5028225;28;20208;-68
2023/01/19 04:57:53;;;;;;;1.03;0.40;;;;;;;;;;5013799;28;20642;-68
2023/01/19 05:00:19;;;;;;;0.67;0.50;;;;;;;;;;5014609;28;20209;-68
2023/01/19 05:02:45;;;;;;;0.80;0.60;;;;;;;;;;5014979;28;20213;-68
2023/01/19 05:05:10;;;;;;;1.23;0.60;;;;;;;;;;5012191;28;20320;-68
2023/01/19 05:07:36;;;;;;;0.80;0.60;;;;;;;;;;5032523;28;20235;-68
2023/01/19 05:10:01;;;;;;;1.90;0.83;;;;;;;;;;5029649;28;20250;-66
2023/01/19 05:12:26;;;;;;;0.97;0.80;;;;;;;;;;5032209;28;20294;-67
2023/01/19 05:14:52;;;;;;;1.30;0.70;;;;;;;;;;5034585;28;20204;-68
2023/01/19 05:17:17;;;;;;;1.97;0.90;;;;;;;;;;5033538;28;20701;-68
2023/01/19 05:19:42;;;;;;;1.47;0.80;;;;;;;;;;5033545;28;20655;-67
2023/01/19 05:22:07;;;;;;;1.47;0.90;;;;;;;;;;5033897;28;20220;-67
2023/01/19 05:24:33;;;;;;;2.00;1.17;;;;;;;;;;5033038;28;20215;-67
2023/01/19 05:26:58;;;;;;;2.67;1.20;;;;;;;;;;5032941;28;20274;-67
2023/01/19 05:29:23;;;;;;;1.70;1.10;;;;;;;;;;5033541;28;20218;-67
2023/01/19 05:31:49;;;;;;;2.67;1.43;;;;;;;;;;5034374;28;20216;-67
2023/01/19 05:34:14;;;;;;;1.67;1.40;;;;;;;;;;5032535;28;20679;-67
2023/01/19 05:36:40;;;;;;;2.20;1.70;;;;;;;;;;5034110;28;20220;-67
2023/01/19 05:39:05;;;;;;;2.43;1.60;;;;;;;;;;5027966;28;20219;-64
2023/01/19 05:41:30;;;;;;;2.47;1.70;;;;;;;;;;5004676;28;20217;-64
2023/01/19 05:43:56;;;;;;;2.93;1.60;;;;;;;;;;5019229;28;20226;-64
2023/01/19 05:46:21;;;;;;;2.33;1.60;;;;;;;;;;5001156;28;20233;-64
2023/01/19 05:48:47;;;;;;;4.07;1.87;;;;;;;;;;4994705;28;20244;-64
2023/01/19 05:51:12;;;;;;;3.20;1.73;;;;;;;;;;4997285;28;20723;-64
2023/01/19 05:53:37;;;;;;;2.57;1.60;;;;;;;;;;4999029;28;20220;-64
2023/01/19 05:56:03;;;;;;;3.53;1.50;;;;;;;;;;5004808;28;20255;-64
2023/01/19 05:58:29;;;;;;;2.73;1.60;;;;;;;;;;5019007;28;20239;-64
2023/01/19 06:00:54;;;;;;;4.63;1.67;;;;;;;;;;5003203;28;20220;-64
2023/01/19 06:03:19;;;;;;;2.27;1.40;;;;;;;;;;5003350;28;20220;-63
2023/01/19 06:05:45;;;;;;;3.20;1.70;;;;;;;;;;4994448;28;20593;-64
2023/01/19 06:08:10;;;;;;;4.13;1.90;;;;;;;;;;4982597;28;20217;-64
2023/01/19 06:10:35;;;;;;;2.97;1.60;;;;;;;;;;4976657;28;20220;-64
2023/01/19 06:13:01;;;;;;;1.73;1.30;;;;;;;;;;4975451;28;20209;-63
2023/01/19 06:15:26;;;;;;;3.93;2.20;;;;;;;;;;4958421;28;20229;-64
2023/01/19 06:17:51;;;;;;;5.07;1.77;;;;;;;;;;4983838;28;20244;-63
2023/01/19 06:20:17;;;;;;;3.83;1.43;;;;;;;;;;4983145;28;20645;-63
2023/01/19 06:22:42;;;;;;;4.33;1.40;;;;;;;;;;4984715;28;20216;-64
2023/01/19 06:25:08;;;;;;;6.13;1.33;;;;;;;;;;5002485;28;20216;-64
2023/01/19 06:27:33;;;;;;;3.23;1.00;;;;;;;;;;5002581;28;21020;-64
2023/01/19 06:29:58;;;;;;;3.40;1.57;;;;;;;;;;5002077;28;20220;-64
2023/01/19 06:32:24;;;;;;;3.93;1.20;;;;;;;;;;4997175;28;20262;-64
2023/01/19 06:34:49;;;;;;;5.80;1.37;;;;;;;;;;4995136;28;20212;-64
2023/01/19 06:37:15;;;;;;;4.57;1.40;;;;;;;;;;5000261;28;20220;-64
2023/01/19 06:39:41;;;;;;;3.87;1.60;;;;;;;;;;5003064;28;20224;-64
2023/01/19 06:42:06;;;;;;;7.53;1.90;;;;;;;;;;4998759;28;20750;-64
2023/01/19 06:44:32;;;;;;;5.47;1.40;;;;;;;;;;4992476;28;20680;-64
2023/01/19 06:46:57;;;;;;;4.13;1.33;;;;;;;;;;4992538;28;20944;-63
2023/01/19 06:49:22;;;;;;;5.87;1.23;;;;;;;;;;4998465;28;20611;-63
2023/01/19 06:51:48;;;;;;;4.22;1.40;;;;;;;;;;5000101;28;20764;-63
2023/01/19 06:54:13;;;;;;;5.77;1.40;;;;;;;;;;4992654;28;20722;-63
2023/01/19 06:56:38;;;;;;;4.70;1.40;;;;;;;;;;4992367;28;20209;-64
2023/01/19 06:59:04;;;;;;;4.33;1.40;;;;;;;;;;4992537;28;20214;-64
2023/01/19 07:01:29;;;;;;;6.23;1.50;;;;;;;;;;4993071;28;20211;-64
2023/01/19 07:03:54;;;;;;;7.50;1.73;;;;;;;;;;4992142;28;20267;-64
2023/01/19 07:06:20;;;;;;;4.37;1.40;;;;;;;;;;5005247;28;20228;-65
2023/01/19 07:08:45;;;;;;;5.40;1.47;;;;;;;;;;5005233;28;20210;-65
2023/01/19 07:11:11;;;;;;;5.40;1.40;;;;;;;;;;4999671;28;20224;-65
2023/01/19 07:13:36;;;;;;;7.13;1.60;;;;;;;;;;4992467;28;20217;-65
2023/01/19 07:16:11;;;;;;;5.63;1.30;;;;;;;;;;4991946;28;20244;-67
2023/01/19 07:18:36;;;;;;;5.37;1.20;;;;;;;;;;4991594;28;20698;-69
2023/01/19 07:21:02;;;;;;;5.10;1.40;;;;;;;;;;4992473;28;20205;-68
2023/01/19 07:23:29;;;;;;;6.80;1.67;;;;;;;;;;4992772;28;20212;-68
2023/01/19 07:25:55;;;;;;;8.30;1.80;;;;;;;;;;4991787;28;20220;-67
2023/01/19 07:28:20;;;;;;;7.03;1.77;;;;;;;;;;4980691;28;20238;-67
2023/01/19 07:30:47;;;;;;;7.37;1.97;;;;;;;;;;4983426;28;20220;-67
2023/01/19 07:33:13;;;;;;;6.40;1.40;;;;;;;;;;4964023;28;20209;-67
2023/01/19 07:35:38;;;;;;;5.27;1.60;;;;;;;;;;4981697;28;20209;-67
2023/01/19 07:38:03;;;;;;;4.47;1.50;;;;;;;;;;4983127;28;20213;-67
2023/01/19 07:40:29;;;;;;;7.33;1.93;;;;;;;;;;4985052;28;20567;-67
2023/01/19 07:42:54;;;;;;;9.33;2.13;;;;;;;;;;4988162;28;20208;-67
2023/01/19 07:45:19;;;;;;;7.00;1.80;;;;;;;;;;4986663;28;20222;-67
2023/01/19 07:47:47;;;;;;;7.93;1.70;;;;;;;;;;4994188;28;20258;-68
2023/01/19 07:50:12;;;;;;;4.87;1.80;;;;;;;;;;4989853;28;20201;-67
2023/01/19 07:52:38;;;;;;;7.00;1.80;;;;;;;;;;4990845;28;20209;-68
2023/01/19 07:55:03;;;;;;;6.43;2.10;;;;;;;;;;4977281;28;20297;-67
2023/01/19 07:57:29;;;;;;;7.10;1.80;;;;;;;;;;4995965;28;20209;-69
2023/01/19 07:59:54;;;;;;;5.47;1.67;;;;;;;;;;4984784;28;20640;-69
2023/01/19 08:02:19;;;;;;;5.53;1.73;;;;;;;;;;4992932;28;20688;-66
2023/01/19 08:04:46;;;;;;;6.13;1.90;;;;;;;;;;4996272;28;20649;-68
2023/01/19 08:07:12;;;;;;;5.87;1.70;;;;;;;;;;4986203;28;20227;-66
2023/01/19 08:09:37;;;;;;;4.43;1.67;;;;;;;;;;5000658;28;20566;-68
2023/01/19 08:12:02;;;;;;;5.73;1.90;;;;;;;;;;5007873;28;20216;-66
2023/01/19 08:14:28;;;;;;;6.43;2.00;;;;;;;;;;5010103;28;20209;-67
2023/01/19 08:16:53;;;;;;;6.27;1.73;;;;;;;;;;4995774;28;20221;-64
2023/01/19 08:19:18;;;;;;;6.93;2.13;;;;;;;;;;4995236;28;20213;-65
2023/01/19 08:21:45;;;;;;;5.80;2.10;;;;;;;;;;4977690;28;20216;-65
2023/01/19 08:24:17;;;;;;;7.83;2.30;;;;;;;;;;4995404;28;20333;-65
2023/01/19 08:26:42;;;;;;;6.93;2.03;;;;;;;;;;4995622;28;20233;-65
2023/01/19 08:29:07;;;;;;;4.57;1.97;;;;;;;;;;4977391;28;20213;-65
2023/01/19 08:31:33;;;;;;;6.93;1.90;;;;;;;;;;4995853;28;20570;-65
2023/01/19 08:33:58;;;;;;;6.43;1.97;;;;;;;;;;4995680;28;20690;-65
2023/01/19 08:36:24;;;;;;;6.30;2.37;;;;;;;;;;4994427;28;20220;-65
2023/01/19 08:38:49;;;;;;;4.37;2.20;;;;;;;;;;4995798;28;20711;-65
2023/01/19 08:41:15;;;;;;;6.10;2.20;;;;;;;;;;5001963;28;20586;-65
2023/01/19 08:43:41;;;;;;;6.23;2.20;;;;;;;;;;4996873;28;20216;-65
2023/01/19 08:46:06;;;;;;;5.97;2.13;;;;;;;;;;5014156;28;20217;-65
2023/01/19 08:48:31;;;;;;;5.13;1.80;;;;;;;;;;5014900;28;20220;-65
2023/01/19 08:50:58;;;;;;;4.80;2.20;;;;;;;;;;5003935;28;20217;-65
2023/01/19 08:53:23;;;;;;;8.07;2.37;;;;;;;;;;5014418;28;20277;-65
2023/01/19 08:55:48;;;;;;;6.37;2.20;;;;;;;;;;5015038;28;20635;-65
2023/01/19 08:58:14;;;;;;;6.70;2.20;;;;;;;;;;5013792;28;20216;-65
2023/01/19 09:00:39;;;;;;;7.60;2.23;;;;;;;;;;4997470;28;20216;-65
2023/01/19 09:03:06;;;;;;;7.47;2.43;;;;;;;;;;5013340;28;20213;-65
2023/01/19 09:05:34;;;;;;;6.43;2.63;;;;;;;;;;5013783;28;20235;-65
2023/01/19 09:08:00;;;;;;;7.47;2.67;;;;;;;;;;4978278;28;20229;-65
2023/01/19 09:10:25;;;;;;;6.80;2.50;;;;;;;;;;4993844;28;20552;-65
2023/01/19 09:12:50;;;;;;;9.10;3.00;;;;;;;;;;4995003;28;20213;-65
2023/01/19 09:15:16;;;;;;;7.63;2.90;;;;;;;;;;4994672;28;20209;-65
2023/01/19 09:17:41;;;;;;;6.87;2.70;;;;;;;;;;4994005;28;20231;-65
2023/01/19 09:20:07;;;;;;;5.47;2.50;;;;;;;;;;4994593;28;20244;-65
2023/01/19 09:22:33;;;;;;;7.17;2.50;;;;;;;;;;4977765;28;20213;-65
2023/01/19 09:24:59;;;;;;;6.07;2.67;;;;;;;;;;4993910;28;20634;-65
2023/01/19 09:27:24;;;;;;;6.60;2.50;;;;;;;;;;4994197;28;20220;-65
2023/01/19 09:29:52;;;;;;;7.20;2.50;;;;;;;;;;4994994;28;20213;-66
2023/01/19 09:32:18;;;;;;;6.93;3.10;;;;;;;;;;4993362;28;20301;-65
2023/01/19 09:34:44;;;;;;;11.03;3.67;;;;;;;;;;4994640;28;20312;-66
2023/01/19 09:37:09;;;;;;;8.87;3.53;;;;;;;;;;4994106;28;20217;-65
2023/01/19 09:39:34;;;;;;;7.57;3.67;;;;;;;;;;4993968;28;20260;-66
2023/01/19 09:42:04;;;;;;;7.37;3.30;;;;;;;;;;5007618;28;20216;-66
2023/01/19 09:44:31;;;;;;;9.90;3.47;;;;;;;;;;4996293;28;20205;-66
2023/01/19 09:46:56;;;;;;;7.13;3.00;;;;;;;;;;5013150;28;20286;-67
2023/01/19 09:49:30;;;;;;;8.90;3.40;;;;;;;;;;5000466;28;20221;-67
2023/01/19 09:51:55;;;;;;;9.27;3.37;;;;;;;;;;4992962;28;20296;-67
2023/01/19 09:54:28;;;;;;;7.80;2.60;;;;;;;;;;4995248;28;20287;-67
2023/01/19 09:56:53;;;;;;;4.87;2.60;;;;;;;;;;5013651;28;20216;-67
2023/01/19 09:59:24;;;;;;;8.00;2.63;;;;;;;;;;4995047;28;20220;-68
2023/01/19 10:01:58;;;;;;;6.93;2.60;;;;;;;;;;5013856;28;20225;-68
2023/01/19 10:04:31;;;;;;;11.68;3.38;;;;;;;;;;5013252;28;20219;-67
2023/01/19 10:06:58;;;;;;;7.50;2.92;;;;;;;;;;5000481;28;20229;-68
2023/01/19 10:09:27;;;;;;;9.93;3.53;;;;;;;;;;4976473;28;20561;-68
2023/01/19 10:11:56;;;;;;;6.25;2.60;;;;;;;;;;4976657;28;20693;-68
2023/01/19 10:14:24;;;;;;;9.68;3.50;;;;;;;;;;4992536;28;20249;-68
2023/01/19 10:16:52;;;;;;;7.35;2.75;;;;;;;;;;4976662;28;20217;-68
2023/01/19 10:19:20;;;;;;;6.60;2.67;;;;;;;;;;4975718;28;20325;-68
2023/01/19 10:21:46;;;;;;;10.07;2.88;;;;;;;;;;4993281;28;20240;-68
2023/01/19 10:24:14;;;;;;;8.57;2.97;;;;;;;;;;4975965;28;20303;-68
2023/01/19 10:26:41;;;;;;;6.97;2.72;;;;;;;;;;4976082;28;20225;-69
2023/01/19 10:29:09;;;;;;;7.95;2.60;;;;;;;;;;4975129;28;20363;-68
2023/01/19 10:31:35;;;;;;;9.50;2.90;;;;;;;;;;4976468;28;20213;-69
2023/01/19 10:34:00;;;;;;;7.40;2.28;;;;;;;;;;4976147;28;20231;-69
2023/01/19 10:36:33;;;;;;;7.05;2.60;;;;;;;;;;4994741;28;20208;-69
2023/01/19 10:38:58;;;;;;;8.57;2.25;;;;;;;;;;5013193;28;20224;-69
2023/01/19 10:41:25;;;;;;;6.05;2.25;;;;;;;;;;5020542;28;20383;-69
2023/01/19 10:43:59;;;;;;;8.75;2.17;;;;;;;;;;5014398;28;20219;-69
2023/01/19 10:46:32;;;;;;;6.95;2.00;;;;;;;;;;5032043;28;20210;-69
2023/01/19 10:48:57;;;;;;;10.32;2.40;;;;;;;;;;5004768;28;20240;-69
2023/01/19 10:51:23;;;;;;;6.40;1.88;;;;;;;;;;5006718;28;20637;-69
2023/01/19 10:53:56;;;;;;;5.28;1.77;;;;;;;;;;5032700;28;20734;-69
2023/01/19 10:56:24;;;;;;;6.40;1.80;;;;;;;;;;5031441;28;20262;-69
2023/01/19 10:58:49;;;;;;;6.63;1.80;;;;;;;;;;5015062;28;20679;-70
2023/01/19 11:01:15;;;;;;;7.47;1.98;;;;;;;;;;5032075;28;20266;-69
2023/01/19 11:03:41;;;;;;;6.28;1.67;;;;;;;;;;5031705;28;20286;-70
2023/01/19 11:06:12;;;;;;;5.47;1.60;;;;;;;;;;5026139;28;20691;-69
2023/01/19 11:08:38;;;;;;;7.28;1.60;;;;;;;;;;5012969;28;20216;-70
2023/01/19 11:11:03;;;;;;;7.10;1.90;;;;;;;;;;5011436;28;20216;-69
2023/01/19 11:13:29;;;;;;;7.97;2.20;;;;;;;;;;4994687;28;20208;-70
2023/01/19 11:15:56;;;;;;;7.38;2.20;;;;;;;;;;5012481;28;20248;-70
2023/01/19 11:18:23;;;;;;;6.43;1.83;;;;;;;;;;5011339;28;20209;-70
2023/01/19 11:20:49;;;;;;;7.43;2.38;;;;;;;;;;4994902;28;20221;-70
2023/01/19 11:23:23;;;;;;;6.40;2.00;;;;;;;;;;4994789;28;20212;-70
2023/01/19 11:25:49;;;;;;;6.82;2.10;;;;;;;;;;5011702;28;20212;-71
2023/01/19 11:28:33;;;;;;;7.28;2.25;;;;;;;;;;4994537;28;20315;-70
2023/01/19 11:30:59;;;;;;;6.10;2.10;;;;;;;;;;4977864;28;20219;-71
2023/01/19 11:33:26;;;;;;;9.15;2.58;;;;;;;;;;5012079;28;20714;-71
2023/01/19 11:35:55;;;;;;;9.80;2.70;;;;;;;;;;5012344;28;20216;-71
2023/01/19 11:38:22;;;;;;;6.60;2.08;;;;;;;;;;4993859;28;20204;-71
2023/01/19 11:40:54;;;;;;;8.50;2.88;;;;;;;;;;4998380;28;20203;-71
2023/01/19 11:43:20;;;;;;;7.10;2.15;;;;;;;;;;5013974;28;20242;-71
2023/01/19 11:45:45;;;;;;;8.05;2.50;;;;;;;;;;5013601;28;20215;-71
2023/01/19 11:48:13;;;;;;;7.55;2.60;;;;;;;;;;5028344;28;20212;-70
2023/01/19 11:50:42;;;;;;;7.35;2.63;;;;;;;;;;5000437;28;20238;-70
2023/01/19 11:53:15;;;;;;;7.63;2.40;;;;;;;;;;5013176;28;20685;-70
2023/01/19 11:55:40;;;;;;;8.25;2.20;;;;;;;;;;4998047;28;20211;-71
2023/01/19 11:58:06;;;;;;;7.13;2.40;;;;;;;;;;5031349;28;20219;-69
2023/01/19 12:00:34;;;;;;;7.70;2.78;;;;;;;;;;5031240;28;20207;-70
2023/01/19 12:03:02;;;;;;;7.95;2.60;;;;;;;;;;5014609;28;20291;-71
2023/01/19 12:05:29;;;;;;;8.13;2.78;;;;;;;;;;5014968;28;20220;-70
2023/01/19 12:07:54;;;;;;;7.15;2.70;;;;;;;;;;5010266;28;20696;-70
2023/01/19 12:10:23;;;;;;;7.50;2.60;;;;;;;;;;5011902;28;20216;-70
2023/01/19 12:12:49;;;;;;;7.75;2.53;;;;;;;;;;5010791;28;20240;-70
2023/01/19 12:15:26;;;;;;;8.25;2.78;;;;;;;;;;5010978;28;20694;-70
2023/01/19 12:17:52;;;;;;;9.55;2.83;;;;;;;;;;5012202;28;20582;-70
2023/01/19 12:20:23;;;;;;;7.57;2.90;;;;;;;;;;5009752;28;20224;-70
2023/01/19 12:22:51;;;;;;;6.43;2.97;;;;;;;;;;5010906;28;20217;-70
2023/01/19 12:25:24;;;;;;;8.17;3.57;;;;;;;;;;5010350;28;20636;-70
2023/01/19 12:27:49;;;;;;;8.80;4.00;;;;;;;;;;5013479;28;20709;-70
2023/01/19 12:30:16;;;;;;;9.80;4.22;;;;;;;;;;5015084;28;20220;-70
2023/01/19 12:32:42;;;;;;;11.10;3.60;;;;;;;;;;5014342;28;20235;-70
2023/01/19 12:35:27;;;;;;;7.90;3.65;;;;;;;;;;5014465;28;20290;-70
2023/01/19 12:37:52;;;;;;;8.35;4.18;;;;;;;;;;5015204;28;20216;-70
2023/01/19 12:40:20;;;;;;;8.10;3.72;;;;;;;;;;5015093;28;20573;-70
2023/01/19 12:42:46;;;;;;;8.68;3.65;;;;;;;;;;5033823;28;20208;-70
2023/01/19 12:45:13;;;;;;;9.23;3.78;;;;;;;;;;5034452;28;20223;-70
2023/01/19 12:47:39;;;;;;;8.80;3.83;;;;;;;;;;5033624;28;20706;-70
2023/01/19 12:50:05;;;;;;;11.02;3.80;;;;;;;;;;5016306;28;20212;-70
2023/01/19 12:52:33;;;;;;;8.48;3.65;;;;;;;;;;5034684;28;20207;-70
2023/01/19 12:55:01;;;;;;;7.90;3.77;;;;;;;;;;5035282;28;20342;-71
2023/01/19 12:57:29;;;;;;;8.23;3.72;;;;;;;;;;5033713;28;20207;-70
2023/01/19 12:59:56;;;;;;;9.40;3.60;;;;;;;;;;5033492;28;20212;-70
2023/01/19 13:02:22;;;;;;;7.22;3.35;;;;;;;;;;5032285;28;20223;-69
2023/01/19 13:05:13;;;;;;;8.50;3.40;;;;;;;;;;5034876;28;20220;-70
2023/01/19 13:08:12;;;;;;;9.35;3.42;;;;;;;;;;5016018;28;20228;-70
2023/01/19 13:10:55;;;;;;;9.75;3.00;;;;;;;;;;5013981;28;20274;-70
2023/01/19 13:13:23;;;;;;;7.65;3.20;;;;;;;;;;5014352;28;20298;-69
2023/01/19 13:15:48;;;;;;;10.73;3.07;;;;;;;;;;5013380;28;20212;-70
2023/01/19 13:18:20;;;;;;;9.27;3.22;;;;;;;;;;5013461;28;20691;-69
2023/01/19 13:20:48;;;;;;;9.70;3.00;;;;;;;;;;5013531;28;20212;-69
2023/01/19 13:23:19;;;;;;;9.65;3.13;;;;;;;;;;5012290;28;20675;-70
2023/01/19 13:25:46;;;;;;;6.85;2.75;;;;;;;;;;5013430;28;20212;-69
2023/01/19 13:28:12;;;;;;;8.57;3.20;;;;;;;;;;5013740;28;20577;-69
2023/01/19 13:30:38;;;;;;;8.33;2.90;;;;;;;;;;5008440;28;20267;-67
2023/01/19 13:33:05;;;;;;;6.97;2.90;;;;;;;;;;5011827;28;20220;-66
2023/01/19 13:35:31;;;;;;;7.67;3.03;;;;;;;;;;5013128;28;20216;-66
2023/01/19 13:37:56;;;;;;;7.73;2.97;;;;;;;;;;5012891;28;20212;-66
2023/01/19 13:40:23;;;;;;;8.50;3.20;;;;;;;;;;5013752;28;20257;-66
2023/01/19 13:42:48;;;;;;;5.83;2.87;;;;;;;;;;5014237;28;20275;-66
2023/01/19 13:45:16;;;;;;;5.63;2.80;;;;;;;;;;5012456;28;20213;-66
2023/01/19 13:47:42;;;;;;;7.18;2.78;;;;;;;;;;5029643;28;20322;-66
2023/01/19 13:50:14;;;;;;;7.72;3.03;;;;;;;;;;5018904;28;20208;-66
2023/01/19 13:52:41;;;;;;;6.75;2.85;;;;;;;;;;5015137;28;20216;-66
2023/01/19 13:55:11;;;;;;;7.63;2.87;;;;;;;;;;5033553;28;20216;-67
2023/01/19 13:57:40;;;;;;;9.43;2.90;;;;;;;;;;5018605;28;20220;-66
2023/01/19 14:00:06;;;;;;;5.72;2.30;;;;;;;;;;5012404;28;20243;-67
2023/01/19 14:02:31;;;;;;;7.88;2.13;;;;;;;;;;5013583;28;20212;-66
2023/01/19 14:04:56;;;;;;;5.80;2.00;;;;;;;;;;5012488;28;20698;-66
2023/01/19 14:07:25;;;;;;;4.20;1.77;;;;;;;;;;5012418;28;20228;-66
2023/01/19 14:10:01;;;;;;;5.03;1.40;;;;;;;;;;5013707;28;20209;-66
2023/01/19 14:12:27;;;;;;;3.63;1.27;;;;;;;;;;5001039;28;20295;-66
2023/01/19 14:14:52;;;;;;;6.17;1.43;;;;;;;;;;4993561;28;20300;-66
2023/01/19 14:17:24;;;;;;;3.72;1.30;;;;;;;;;;4975584;28;20213;-66
2023/01/19 14:19:50;;;;;;;3.63;0.90;;;;;;;;;;4992011;28;20279;-66
2023/01/19 14:22:16;;;;;;;3.80;0.90;;;;;;;;;;4997195;28;20209;-65
2023/01/19 14:24:41;;;;;;;3.60;0.80;;;;;;;;;;5003478;28;20613;-66
2023/01/19 14:27:07;;;;;;;4.23;0.87;;;;;;;;;;5003113;28;20217;-66
2023/01/19 14:29:33;;;;;;;2.57;0.90;;;;;;;;;;5004550;28;20244;-66
2023/01/19 14:31:58;;;;;;;3.17;1.00;;;;;;;;;;5002388;28;20201;-66
2023/01/19 14:34:31;;;;;;;3.22;0.90;;;;;;;;;;5002080;28;20223;-66
2023/01/19 14:36:57;;;;;;;2.17;0.77;;;;;;;;;;5004335;28;20236;-66
2023/01/19 14:39:23;;;;;;;3.77;0.90;;;;;;;;;;5001727;28;20209;-66
2023/01/19 14:41:51;;;;;;;3.77;0.90;;;;;;;;;;4995778;28;20216;-66
2023/01/19 14:44:18;;;;;;;4.10;0.90;;;;;;;;;;5013677;28;20587;-66
2023/01/19 14:46:45;;;;;;;3.80;1.00;;;;;;;;;;5003177;28;20311;-66
2023/01/19 14:49:13;;;;;;;3.08;1.20;;;;;;;;;;4991974;28;20264;-66